DAOV

Ghriss Airport

Algeria
TAF DAOV 211700Z 2118/2203 34012KT 9999 FEW026 SCT030 BECMG 2120/2123 VRB02KT
Issued Valid From Valid To
Jun-21 @ 17:00 UTC
(an hour ago)
Jun-21 @ 18:00 UTC
(7 minutes ago)
Jun-22 @ 03:00 UTC
(in 9 hours)
Jun-21 @ 18:00 to Jun-21 @ 20:00
TAF DAOV 211700Z 2118/2203 34012KT 9999 FEW026 SCT030
Wind Visibility Clouds
340° at 12 knots 10,000+ meters
  • Few at 2,600' AGL
  • Scattered at 3,000' AGL
Becoming Jun-21 @ 20:00 to Jun-22 @ 03:00
BECMG 2120/2123 VRB02KT
Wind Visibility Clouds
Variable at 2 knots 10,000+ meters
  • Few at 2,600' AGL
  • Scattered at 3,000' AGL
TAF DAOV 211700Z 2118/2203 34012KT 9999 FEW026 SCT030 BECMG 2120/2123 VRB02KT
Issued Jun-21 @ 17:00 UTC
(an hour ago)
Valid From Jun-21 @ 18:00 UTC
(7 minutes ago)
Valid To Jun-22 @ 03:00 UTC
(in 9 hours)
Jun-21 @ 18:00 - Jun-21 @ 20:00
Wind Visibility
340° at 12 knots 10,000+ meters
Clouds
  • Few at 2,600' AGL
  • Scattered at 3,000' AGL
Becoming Jun-21 @ 20:00 - Jun-22 @ 03:00
Wind Visibility
Variable at 2 knots 10,000+ meters
Clouds
  • Few at 2,600' AGL
  • Scattered at 3,000' AGL